Archival Weather

Chicago O'Hare International

Chicago, Illinois (KORD)

Report from: Thursday, May 11, 2023 1:51 AM CDT
Current time: Sunday, February 25, 2024 4:16 PM CST

Current weather – Weather history – Daily summaries
Weather forecast

Temperature13.9°C (57.0°F)
Dew point6.1°C (43.0°F)
Winds Calm
Visibility10 mi. (16.1 km)
Clouds Scattered clouds 30,000 ft. (9,144 m)
Altimeter30.09 in.Hg (1019 mB)
Relative humidity59 %
Density altitude-177 ft. (-54 m)
Sea-level pressure101.9 kPa (1019 mB, 30.08 in.Hg)
Remarks Automated weather observing station with precipitation discriminator
Flight conditions Visual Meteorological Conditions
Raw dataKORD 110651Z 00000KT 10SM SCT300 14/06 A3009 RMK AO2 SLP187 T01390061
An error has occurred. This application may no longer respond until reloaded. Reload 🗙